Main page
METAR-TAF:

METAR-TAF

Airports :

Oxford Airport

Oxford, England

latitude: 51-50-13N, longitude: 1-19-12W, elevation: 82 m

Current weather observation

The report was made 26 minutes ago, at 18:50 UTC
Wind 9 kt from the West/Northwest, varying between West/Southwest and Northwest
Temperature 15°C
Humidity 67%
Pressure 1006 hPa
Visibility 10 km or more
Scattered clouds at a height of 2000 ft, Cumulonimbus.
Broken clouds at a height of 3400 ft
thunderstorm in vicinity

METAR: EGTK 281850Z 30009KT 250V320 9999 VCTS SCT020CB BKN034 15/09 Q1006

Time: 20:16 (19:16 UTC)

Forecast

The report was made 2 hours and 13 minutes ago, at 17:03 UTC
Forecast valid from 28 at 18 UTC to 28 at 22 UTC
Wind 12 kt from the West/Southwest
Visibility 10 km or more
Scattered clouds at a height of 3000 ft
Probability 40% :
Temporary
from 28 at 18 UTC to 28 at 20 UTC
Visibility: 7000 m
rain showers

TAF: EGTK 281703Z 2818/2822 24012KT 9999 SCT030 PROB40 TEMPO 2818/2820 7000 SHRA

Weather observations and forecasts of more than 4000 airports (METAR and TAF reports).

The available stations are represented by yellow and red dots on the map.

Hover mouse over dot to see the name of the station.

Then click to see weather observations and forecasts.

To change the map : click on the green buttons with a black cross to zoom in, on the green button with a dash to zoom out, or on the green arrows for adjacent maps.


METAR-TAF: